Time;durP1;ratioP1;P1;durP2;ratioP2;P2;SDS_P1;SDS_P2;PMS_P1;PMS_P2;Temp;Humidity;BMP_temperature;BMP_pressure;BME280_temperature;BME280_humidity;BME280_pressure;Samples;Min_cycle;Max_cycle;Signal;HPM_P1;HPM_P2
2022/10/07 00:01:54;;;;;;;14.77;3.17;;;13.10;94.50;;;;;;5016822;28;20034;-86
2022/10/07 00:04:20;;;;;;;9.80;2.83;;;13.10;94.50;;;;;;5015536;28;20033;-85
2022/10/07 00:06:47;;;;;;;10.57;3.20;;;13.00;94.70;;;;;;5015358;28;20039;-86
2022/10/07 00:09:12;;;;;;;15.88;3.50;;;13.00;94.70;;;;;;5016479;28;20069;-86
2022/10/07 00:11:38;;;;;;;15.02;3.28;;;13.00;94.80;;;;;;4999002;28;20072;-87
2022/10/07 00:14:08;;;;;;;11.13;2.83;;;12.90;94.80;;;;;;5015331;28;20526;-87
2022/10/07 00:16:37;;;;;;;10.18;3.00;;;12.90;95.00;;;;;;4999008;28;20088;-86
2022/10/07 00:19:06;;;;;;;16.13;3.35;;;13.00;95.20;;;;;;4998957;28;20038;-86
2022/10/07 00:21:33;;;;;;;13.57;3.15;;;12.90;95.10;;;;;;5016429;28;20029;-86
2022/10/07 00:23:59;;;;;;;14.57;3.42;;;12.90;95.10;;;;;;4998754;28;20025;-86
2022/10/07 00:26:27;;;;;;;9.90;3.10;;;12.90;95.30;;;;;;4998616;28;20022;-86
2022/10/07 00:28:54;;;;;;;16.00;3.40;;;13.00;95.40;;;;;;5014779;28;20022;-87
2022/10/07 00:31:22;;;;;;;14.15;3.47;;;12.90;95.40;;;;;;4998362;28;20485;-86
2022/10/07 00:33:49;;;;;;;11.10;3.10;;;12.90;95.50;;;;;;4998448;28;20022;-87
2022/10/07 00:36:18;;;;;;;13.77;3.30;;;12.90;95.50;;;;;;4982341;28;20025;-86
2022/10/07 00:38:44;;;;;;;11.52;2.95;;;12.90;95.40;;;;;;4998444;28;20036;-86
2022/10/07 00:41:21;;;;;;;11.43;3.75;;;12.80;95.40;;;;;;4998123;28;20037;-87
2022/10/07 00:43:47;;;;;;;10.63;3.20;;;12.80;95.40;;;;;;4998432;28;20044;-86
2022/10/07 00:46:25;;;;;;;13.10;3.75;;;12.80;95.60;;;;;;5015299;28;20105;-86
2022/10/07 00:48:52;;;;;;;15.02;3.40;;;12.70;95.70;;;;;;4998414;28;20034;-87
2022/10/07 00:51:18;;;;;;;16.13;3.78;;;12.70;95.80;;;;;;4982380;28;20045;-86
2022/10/07 00:53:48;;;;;;;14.95;3.45;;;12.70;95.90;;;;;;5017020;28;20466;-86
2022/10/07 00:56:15;;;;;;;15.47;3.47;;;12.70;96.00;;;;;;5016983;28;20076;-86
2022/10/07 00:58:43;;;;;;;12.80;3.13;;;12.70;96.00;;;;;;4984464;28;20313;-86
2022/10/07 01:01:08;;;;;;;14.63;3.58;;;12.60;96.00;;;;;;4999753;28;20480;-86
2022/10/07 01:03:35;;;;;;;10.57;3.30;;;12.70;96.20;;;;;;5017775;28;20034;-86
2022/10/07 01:06:05;;;;;;;12.63;3.25;;;12.60;96.20;;;;;;4987337;28;20040;-88
2022/10/07 01:08:31;;;;;;;13.55;3.35;;;12.70;96.20;;;;;;5035577;28;20013;-87
2022/10/07 01:11:35;;;;;;;11.30;3.17;;;12.70;96.20;;;;;;5038991;28;20032;-86
2022/10/07 01:14:10;;;;;;;13.38;3.10;;;12.70;96.10;;;;;;5039028;28;20045;-94
2022/10/07 01:16:51;;;;;;;10.27;3.22;;;12.70;96.10;;;;;;5038437;28;20014;-85
2022/10/07 01:19:26;;;;;;;;;;;12.70;96.10;;;;;;5022452;28;20026;-87
2022/10/07 01:21:57;;;;;;;12.82;3.45;;;12.60;96.00;;;;;;5038579;28;19964;-86
2022/10/07 01:24:50;;;;;;;8.00;2.90;;;12.60;96.10;;;;;;5039073;28;20041;-88
2022/10/07 01:27:20;;;;;;;10.52;3.17;;;12.60;96.10;;;;;;5021517;28;20040;-86
2022/10/07 01:29:54;;;;;;;12.90;2.97;;;12.50;96.10;;;;;;4997819;28;20389;-85
2022/10/07 01:32:32;;;;;;;12.88;3.20;;;12.50;96.20;;;;;;5013674;28;20449;-86
2022/10/07 01:35:00;;;;;;;8.65;3.15;;;12.50;96.20;;;;;;5015031;28;20030;-86
2022/10/07 01:37:30;;;;;;;12.05;3.22;;;12.50;96.30;;;;;;5014570;28;20470;-86
2022/10/07 01:40:00;;;;;;;10.80;3.22;;;12.50;96.30;;;;;;5014872;28;20030;-86
2022/10/07 01:42:27;;;;;;;13.95;3.22;;;12.40;96.40;;;;;;4997125;28;20136;-86
2022/10/07 01:44:57;;;;;;;14.02;3.25;;;12.40;96.40;;;;;;4981032;28;20382;-87
2022/10/07 01:47:25;;;;;;;9.87;3.23;;;12.40;96.40;;;;;;4996965;28;20377;-87
2022/10/07 01:49:51;;;;;;;10.80;3.47;;;12.40;96.40;;;;;;5014639;28;20532;-86
2022/10/07 01:52:39;;;;;;;13.63;3.22;;;12.30;96.50;;;;;;5012735;28;20030;-87
2022/10/07 01:55:26;;;;;;;12.60;2.78;;;12.30;96.50;;;;;;4997234;28;20109;-86
2022/10/07 01:58:10;;;;;;;9.57;3.08;;;12.40;96.60;;;;;;5013410;28;20521;-86
2022/10/07 02:00:42;;;;;;;10.93;3.40;;;12.30;96.50;;;;;;5013146;28;20386;-87
2022/10/07 02:03:33;;;;;;;11.45;3.25;;;12.30;96.50;;;;;;4996597;28;20425;-87
2022/10/07 02:06:14;;;;;;;;;;;12.20;96.60;;;;;;5013683;28;20363;-86
2022/10/07 02:08:50;;;;;;;14.45;3.53;;;12.20;96.60;;;;;;5014228;28;19905;-87
2022/10/07 02:11:29;;;;;;;10.52;2.85;;;12.10;96.60;;;;;;4996669;28;20489;-87
2022/10/07 02:14:06;;;;;;;10.85;3.28;;;12.10;96.80;;;;;;4996976;28;20096;-87
2022/10/07 02:16:47;;;;;;;16.05;3.97;;;12.10;96.90;;;;;;5014159;28;20458;-85
2022/10/07 02:19:28;;;;;;;9.80;3.03;;;12.10;97.00;;;;;;4996397;28;20089;-86
2022/10/07 02:21:56;;;;;;;13.40;4.05;;;12.10;97.10;;;;;;4996653;28;20022;-86
2022/10/07 02:24:26;;;;;;;10.77;2.92;;;12.00;97.10;;;;;;5014208;28;20057;-86
2022/10/07 02:26:54;;;;;;;10.23;3.30;;;12.00;97.00;;;;;;4996431;28;20109;-86
2022/10/07 02:29:22;;;;;;;10.88;3.25;;;12.00;97.00;;;;;;4996262;28;20048;-86
2022/10/07 02:31:51;;;;;;;13.68;3.42;;;12.00;97.00;;;;;;5013880;28;20032;-85
2022/10/07 02:34:20;;;;;;;10.85;3.40;;;11.90;97.00;;;;;;4996714;28;20092;-86
2022/10/07 02:36:51;;;;;;;12.07;3.67;;;11.90;97.10;;;;;;5013277;28;20041;-87
2022/10/07 02:39:17;;;;;;;9.20;3.25;;;11.90;97.10;;;;;;5013072;28;20030;-88
2022/10/07 02:41:49;;;;;;;11.45;3.35;;;11.80;97.20;;;;;;5013006;28;20061;-86
2022/10/07 02:44:29;;;;;;;11.55;3.83;;;11.90;97.30;;;;;;5012664;28;20041;-87
2022/10/07 02:47:13;;;;;;;12.00;3.47;;;11.80;97.30;;;;;;4996432;28;20113;-87
2022/10/07 02:49:40;;;;;;;14.55;3.63;;;11.80;97.40;;;;;;5013740;28;20428;-84
2022/10/07 02:52:10;;;;;;;10.35;3.22;;;11.80;97.50;;;;;;4996504;28;20018;-86
2022/10/07 02:55:05;;;;;;;10.18;2.97;;;11.80;97.60;;;;;;4996387;28;20022;-86
2022/10/07 02:57:36;;;;;;;14.25;3.40;;;11.80;97.60;;;;;;4994330;28;20129;-86
2022/10/07 03:00:04;;;;;;;11.50;3.72;;;11.70;97.70;;;;;;4996362;28;20030;-86
2022/10/07 03:02:57;;;;;;;8.93;3.33;;;11.70;97.60;;;;;;5013446;28;20029;-86
2022/10/07 03:05:24;;;;;;;12.10;3.10;;;11.70;97.70;;;;;;4999851;28;20026;-86
2022/10/07 03:07:56;;;;;;;11.77;3.38;;;11.70;97.80;;;;;;4984655;28;20112;-85
2022/10/07 03:10:22;;;;;;;10.70;3.05;;;11.70;97.90;;;;;;5017447;28;20040;-86
2022/10/07 03:12:49;;;;;;;16.98;3.97;;;11.60;97.90;;;;;;5000237;28;20034;-86
2022/10/07 03:15:14;;;;;;;10.50;3.38;;;11.60;97.90;;;;;;5016598;28;20034;-86
2022/10/07 03:17:41;;;;;;;13.32;3.28;;;11.60;97.90;;;;;;5016981;28;20026;-85
2022/10/07 03:20:08;;;;;;;15.32;3.58;;;11.60;98.00;;;;;;5017321;28;20436;-85
2022/10/07 03:22:34;;;;;;;12.30;3.55;;;11.60;98.00;;;;;;4983279;28;20018;-86
2022/10/07 03:24:59;;;;;;;14.32;3.38;;;11.60;98.10;;;;;;5017213;28;20026;-86
2022/10/07 03:27:25;;;;;;;12.18;2.83;;;11.50;98.10;;;;;;5032279;28;20026;-86
2022/10/07 03:29:51;;;;;;;12.18;3.15;;;11.50;98.20;;;;;;4967513;28;20038;-86
2022/10/07 03:32:16;;;;;;;10.65;3.50;;;11.60;98.40;;;;;;4967394;28;20474;-86
2022/10/07 03:34:42;;;;;;;15.60;3.35;;;11.50;98.40;;;;;;4983545;28;20030;-86
2022/10/07 03:37:07;;;;;;;10.60;3.10;;;11.50;98.40;;;;;;5016055;28;20038;-86
2022/10/07 03:39:33;;;;;;;7.28;2.78;;;11.50;98.50;;;;;;4999450;28;20498;-85
2022/10/07 03:41:59;;;;;;;9.68;2.90;;;11.50;98.50;;;;;;4983093;28;20049;-86
2022/10/07 03:44:25;;;;;;;10.40;2.70;;;11.50;98.60;;;;;;5015321;28;20125;-86
2022/10/07 03:46:51;;;;;;;12.55;3.40;;;11.50;98.70;;;;;;5015556;28;20057;-86
2022/10/07 03:49:19;;;;;;;9.10;3.05;;;11.50;98.70;;;;;;5015627;28;20037;-86
2022/10/07 03:51:44;;;;;;;9.98;3.20;;;11.50;98.80;;;;;;5015409;28;20116;-86
2022/10/07 03:54:10;;;;;;;8.77;2.63;;;11.40;98.80;;;;;;4999463;28;20057;-85
2022/10/07 03:56:35;;;;;;;12.57;3.25;;;11.50;98.80;;;;;;4999095;28;20026;-86
2022/10/07 03:59:01;;;;;;;8.73;2.92;;;11.40;98.80;;;;;;4966757;28;20092;-86
2022/10/07 04:01:30;;;;;;;12.15;3.30;;;11.40;98.80;;;;;;4998860;28;20386;-85
2022/10/07 04:03:56;;;;;;;14.10;3.67;;;11.40;98.90;;;;;;5015796;28;20382;-86
2022/10/07 04:06:22;;;;;;;9.95;2.70;;;11.40;99.00;;;;;;5016592;28;20026;-86
2022/10/07 04:08:51;;;;;;;11.95;2.78;;;11.40;99.00;;;;;;5015286;28;20443;-86
2022/10/07 04:11:17;;;;;;;11.43;4.18;;;11.40;99.00;;;;;;4998738;28;20025;-86
2022/10/07 04:13:44;;;;;;;14.15;3.15;;;11.30;99.00;;;;;;5016231;28;20026;-86
2022/10/07 04:16:10;;;;;;;16.10;3.35;;;11.30;99.10;;;;;;5015041;28;20022;-86
2022/10/07 04:18:36;;;;;;;10.38;3.10;;;11.30;99.20;;;;;;4998648;28;20018;-86
2022/10/07 04:21:01;;;;;;;11.05;2.85;;;11.30;99.20;;;;;;4982726;28;20028;-86
2022/10/07 04:23:27;;;;;;;11.90;3.20;;;11.30;99.30;;;;;;5015040;28;20085;-87
2022/10/07 04:25:53;;;;;;;11.82;3.30;;;11.30;99.30;;;;;;5031702;28;20025;-86
2022/10/07 04:28:24;;;;;;;12.05;3.10;;;11.30;99.40;;;;;;4966493;28;20113;-86
2022/10/07 04:30:52;;;;;;;16.00;3.20;;;11.20;99.30;;;;;;4998603;28;20022;-86
2022/10/07 04:33:20;;;;;;;11.70;3.28;;;11.30;99.40;;;;;;4982654;28;20508;-86
2022/10/07 04:35:47;;;;;;;13.25;3.85;;;11.20;99.50;;;;;;4998297;28;20021;-86
2022/10/07 04:38:17;;;;;;;13.10;3.40;;;11.20;99.50;;;;;;4998502;28;20467;-86
2022/10/07 04:40:45;;;;;;;13.75;4.00;;;11.20;99.60;;;;;;4998825;28;20037;-87
2022/10/07 04:43:18;;;;;;;13.40;3.40;;;11.20;99.80;;;;;;4997931;28;20049;-85
2022/10/07 04:45:58;;;;;;;15.40;3.80;;;11.20;99.90;;;;;;4999360;28;20490;-86
2022/10/07 04:48:25;;;;;;;15.77;4.43;;;11.20;99.90;;;;;;4998219;28;20030;-86
2022/10/07 04:50:51;;;;;;;15.05;3.45;;;11.20;99.90;;;;;;5014248;28;20037;-86
2022/10/07 04:53:18;;;;;;;12.60;3.42;;;11.20;99.90;;;;;;4966711;28;20088;-86
2022/10/07 04:55:47;;;;;;;10.70;3.33;;;11.20;99.90;;;;;;5032705;28;20038;-86
2022/10/07 04:58:14;;;;;;;12.38;3.42;;;11.20;99.90;;;;;;5014819;28;20076;-86
2022/10/07 05:00:45;;;;;;;16.65;3.58;;;11.20;99.90;;;;;;4981602;28;20057;-86
2022/10/07 05:03:13;;;;;;;12.57;3.08;;;11.20;99.90;;;;;;4998495;28;20048;-86
2022/10/07 05:05:43;;;;;;;12.32;3.30;;;11.10;99.90;;;;;;4998350;28;20062;-86
2022/10/07 05:08:09;;;;;;;12.50;3.38;;;11.20;99.90;;;;;;4998604;28;20119;-85
2022/10/07 05:10:36;;;;;;;10.10;2.90;;;11.20;99.90;;;;;;4981809;28;20044;-86
2022/10/07 05:13:03;;;;;;;15.68;3.83;;;11.20;99.90;;;;;;4981843;28;20033;-85
2022/10/07 05:15:29;;;;;;;13.90;3.72;;;11.10;99.90;;;;;;5015196;28;20025;-85
2022/10/07 05:17:55;;;;;;;13.80;3.05;;;11.10;99.90;;;;;;4997725;28;20026;-89
2022/10/07 05:20:21;;;;;;;14.30;3.58;;;11.10;99.90;;;;;;4982306;28;20042;-86
2022/10/07 05:22:47;;;;;;;17.52;4.70;;;11.10;99.90;;;;;;5014066;28;20030;-86
2022/10/07 05:25:13;;;;;;;14.63;3.50;;;11.10;99.90;;;;;;5015633;28;20026;-85
2022/10/07 05:27:39;;;;;;;13.52;3.10;;;11.10;99.90;;;;;;4980396;28;20374;-85
2022/10/07 05:30:07;;;;;;;12.43;3.40;;;11.10;99.90;;;;;;5014951;28;20030;-86
2022/10/07 05:32:33;;;;;;;12.43;3.42;;;11.00;99.90;;;;;;5014089;28;20059;-85
2022/10/07 05:34:58;;;;;;;15.27;3.05;;;11.00;99.90;;;;;;5013600;28;20018;-85
2022/10/07 05:37:24;;;;;;;14.50;3.30;;;11.00;99.90;;;;;;4997764;28;20034;-86
2022/10/07 05:39:50;;;;;;;14.48;4.00;;;11.00;99.90;;;;;;4997468;28;20038;-86
2022/10/07 05:42:16;;;;;;;18.38;4.05;;;11.00;99.90;;;;;;4997421;28;20072;-85
2022/10/07 05:44:42;;;;;;;13.40;3.22;;;11.00;99.90;;;;;;4964757;28;20466;-87
2022/10/07 05:47:07;;;;;;;21.15;4.70;;;11.00;99.90;;;;;;5013511;28;20026;-85
2022/10/07 05:49:34;;;;;;;14.10;3.55;;;11.00;99.90;;;;;;4964790;28;20125;-85
2022/10/07 05:52:01;;;;;;;17.13;3.60;;;11.00;99.90;;;;;;5015043;28;20373;-86
2022/10/07 05:54:27;;;;;;;18.88;3.30;;;11.00;99.90;;;;;;4990078;28;20128;-85
2022/10/07 05:56:52;;;;;;;15.75;3.20;;;10.90;99.90;;;;;;4982515;28;20061;-86
2022/10/07 05:59:19;;;;;;;13.52;3.58;;;11.00;99.90;;;;;;5013683;28;20141;-85
2022/10/07 06:01:45;;;;;;;18.77;3.60;;;11.00;99.90;;;;;;5013126;28;20026;-86
2022/10/07 06:04:11;;;;;;;12.55;3.45;;;10.90;99.90;;;;;;4996919;28;20022;-85
2022/10/07 06:06:37;;;;;;;13.13;3.40;;;10.90;99.90;;;;;;4964732;28;20037;-86
2022/10/07 06:14:32;;;;;;;13.15;3.13;;;10.90;99.90;;;;;;4985948;28;20077;-86
2022/10/07 06:16:59;;;;;;;15.85;4.60;;;10.90;99.90;;;;;;4980500;28;20038;-87
2022/10/07 06:19:25;;;;;;;15.85;3.50;;;10.90;99.90;;;;;;4980311;28;20037;-87
2022/10/07 06:21:50;;;;;;;16.95;3.97;;;10.90;99.90;;;;;;4980219;28;20076;-85
2022/10/07 06:24:16;;;;;;;17.05;4.25;;;10.90;99.90;;;;;;4981315;28;20085;-86
2022/10/07 06:26:42;;;;;;;13.65;3.83;;;11.00;99.90;;;;;;4979800;28;20374;-88
2022/10/07 06:29:08;;;;;;;21.20;4.00;;;11.00;99.90;;;;;;4995563;28;20542;-87
2022/10/07 06:31:35;;;;;;;13.40;3.47;;;11.00;99.90;;;;;;4995414;28;20427;-87
2022/10/07 06:34:00;;;;;;;16.65;4.35;;;11.00;99.90;;;;;;4995842;28;20075;-87
2022/10/07 06:36:26;;;;;;;16.10;3.40;;;11.00;99.90;;;;;;4979787;28;20033;-84
2022/10/07 06:38:53;;;;;;;13.55;3.70;;;11.00;99.90;;;;;;5028186;28;20371;-84
2022/10/07 06:41:20;;;;;;;12.93;3.78;;;11.00;99.90;;;;;;4995879;28;20462;-84
2022/10/07 06:43:46;;;;;;;12.35;3.15;;;11.00;99.90;;;;;;4996892;28;20437;-85
2022/10/07 06:46:15;;;;;;;19.88;3.80;;;11.10;99.90;;;;;;5012404;28;20048;-86
2022/10/07 06:48:41;;;;;;;15.93;3.65;;;11.10;99.90;;;;;;5013802;28;20018;-86
2022/10/07 06:51:11;;;;;;;16.73;4.70;;;11.10;99.90;;;;;;4979822;28;20029;-85
2022/10/07 06:53:37;;;;;;;9.20;2.90;;;11.10;99.90;;;;;;4995817;28;20033;-83
2022/10/07 06:56:04;;;;;;;13.07;3.15;;;11.10;99.90;;;;;;5018489;28;20026;-85
2022/10/07 06:58:29;;;;;;;17.42;3.95;;;11.10;99.90;;;;;;5013030;28;20033;-84
2022/10/07 07:00:57;;;;;;;14.55;4.13;;;11.20;99.90;;;;;;5029521;28;20417;-85
2022/10/07 07:03:23;;;;;;;18.55;3.70;;;11.20;99.90;;;;;;4997365;28;20026;-86
2022/10/07 07:05:53;;;;;;;17.85;4.53;;;11.20;99.90;;;;;;5012424;28;20437;-85
2022/10/07 07:08:20;;;;;;;20.17;3.85;;;11.20;99.90;;;;;;4981218;28;20034;-94
2022/10/07 07:10:48;;;;;;;19.67;4.53;;;11.20;99.90;;;;;;5014930;28;20034;-94
2022/10/07 07:13:14;;;;;;;16.40;3.70;;;11.20;99.90;;;;;;4982251;28;20022;-93
2022/10/07 07:15:40;;;;;;;16.33;4.25;;;11.30;99.90;;;;;;4995509;28;20048;-93
2022/10/07 07:18:09;;;;;;;20.40;4.10;;;11.30;99.90;;;;;;4994406;28;20018;-95
2022/10/07 07:20:36;;;;;;;16.63;4.68;;;11.30;99.90;;;;;;5013838;28;20034;-93
2022/10/07 07:23:09;;;;;;;20.33;4.63;;;11.40;99.90;;;;;;4996370;28;20084;-92
2022/10/07 07:25:37;;;;;;;22.05;3.97;;;11.40;99.90;;;;;;4998323;28;20025;-96
2022/10/07 07:28:04;;;;;;;16.77;4.97;;;11.50;99.90;;;;;;4998124;28;20033;-96
2022/10/07 07:30:31;;;;;;;15.07;4.13;;;11.50;99.90;;;;;;4998360;28;20025;-95
2022/10/07 07:32:57;;;;;;;19.48;4.90;;;11.60;99.90;;;;;;4996922;28;20029;-94
2022/10/07 07:35:24;;;;;;;18.55;4.80;;;11.60;99.90;;;;;;4996491;28;20022;-86
2022/10/07 07:37:50;;;;;;;20.60;5.25;;;11.60;99.90;;;;;;4995553;28;20026;-86
2022/10/07 07:40:17;;;;;;;18.23;5.00;;;11.70;99.90;;;;;;4995485;28;20049;-85
2022/10/07 07:42:44;;;;;;;17.75;5.03;;;11.80;99.90;;;;;;4976127;28;20056;-86
2022/10/07 07:45:10;;;;;;;26.88;5.57;;;11.80;99.90;;;;;;4993885;28;20022;-89
2022/10/07 07:47:36;;;;;;;18.13;4.68;;;11.90;99.90;;;;;;4976057;28;20049;-86
2022/10/07 07:50:03;;;;;;;13.30;4.95;;;11.90;99.90;;;;;;4994340;28;20106;-84
2022/10/07 07:52:29;;;;;;;15.57;4.43;;;11.90;99.90;;;;;;5029036;28;20022;-84
2022/10/07 07:55:00;;;;;;;17.42;4.35;;;11.90;99.90;;;;;;4979679;28;20023;-95
2022/10/07 07:57:28;;;;;;;13.80;3.83;;;12.00;99.90;;;;;;4998451;28;20035;-94
2022/10/07 08:00:04;;;;;;;17.02;4.57;;;12.00;99.90;;;;;;5030387;28;20022;-94
2022/10/07 08:02:30;;;;;;;15.63;3.95;;;12.00;99.90;;;;;;4997837;28;20045;-94
2022/10/07 08:04:56;;;;;;;13.43;3.78;;;12.00;99.90;;;;;;4997068;28;20471;-94
2022/10/07 08:07:21;;;;;;;19.08;4.47;;;12.00;99.90;;;;;;5013909;28;20027;-95
2022/10/07 08:09:49;;;;;;;11.95;3.53;;;12.20;99.90;;;;;;4982856;28;20145;-95
2022/10/07 08:12:38;;;;;;;10.65;3.42;;;12.20;99.90;;;;;;5018882;28;20026;-96
2022/10/07 08:15:42;;;;;;;;;;;;;;;;;;;;;
2022/10/07 08:18:16;;;;;;;12.70;3.20;;;12.30;99.90;;;;;;5003444;28;20070;-94
2022/10/07 08:21:06;;;;;;;16.33;3.92;;;12.40;99.90;;;;;;4988925;28;20030;-95
2022/10/07 08:23:53;;;;;;;;;;;;;;;;;;;;;
2022/10/07 08:26:20;;;;;;;20.92;3.63;;;12.60;99.90;;;;;;5000343;28;20149;-94
2022/10/07 08:28:47;;;;;;;15.50;3.22;;;12.60;99.90;;;;;;4981485;28;20065;-93
2022/10/07 08:31:16;;;;;;;19.27;4.00;;;12.70;99.90;;;;;;4997820;28;20029;-91
2022/10/07 08:33:48;;;;;;;23.02;3.90;;;12.80;99.90;;;;;;4997721;28;20029;-94
2022/10/07 08:36:21;;;;;;;15.27;3.67;;;12.90;99.90;;;;;;4996921;28;20023;-92
2022/10/07 08:38:48;;;;;;;14.07;3.17;;;13.00;99.90;;;;;;4998756;28;20045;-96
2022/10/07 08:41:38;;;;;;;14.40;3.15;;;13.10;99.90;;;;;;4998251;28;20100;-94
2022/10/07 08:44:16;;;;;;;19.45;3.55;;;13.20;99.90;;;;;;5016924;28;20022;-95
2022/10/07 08:47:05;;;;;;;16.73;3.65;;;13.20;99.90;;;;;;5019672;28;20466;-94
2022/10/07 08:50:03;;;;;;;18.90;3.42;;;13.30;99.90;;;;;;5017313;28;20037;-95
2022/10/07 08:52:41;;;;;;;19.80;3.42;;;13.40;99.90;;;;;;5017917;28;20109;-94
2022/10/07 08:55:29;;;;;;;15.25;3.55;;;13.50;99.90;;;;;;5019460;28;20052;-95
2022/10/07 08:58:16;;;;;;;13.70;3.08;;;13.60;99.90;;;;;;5000144;28;20049;-92
2022/10/07 09:00:58;;;;;;;16.08;3.90;;;13.70;99.90;;;;;;5015577;28;20482;-91
2022/10/07 09:03:30;;;;;;;18.65;4.55;;;13.80;99.90;;;;;;5004160;28;20033;-93
2022/10/07 09:06:07;;;;;;;14.13;2.95;;;13.90;99.90;;;;;;5016481;28;20050;-93
2022/10/07 09:08:39;;;;;;;11.40;2.80;;;14.00;99.90;;;;;;5004562;28;20116;-94
2022/10/07 09:11:18;;;;;;;15.10;3.05;;;14.10;99.90;;;;;;5004911;28;20018;-93
2022/10/07 09:14:03;;;;;;;16.33;2.92;;;14.20;99.90;;;;;;5016010;28;20029;-92
2022/10/07 09:16:37;;;;;;;14.18;2.85;;;14.30;99.90;;;;;;5019935;28;20073;-92
2022/10/07 09:19:04;;;;;;;15.70;3.28;;;14.40;99.90;;;;;;5022671;28;20034;-94
2022/10/07 09:21:33;;;;;;;13.45;2.88;;;14.50;99.90;;;;;;5006235;28;20069;-93
2022/10/07 09:24:11;;;;;;;13.45;3.00;;;14.60;99.90;;;;;;5030424;28;20033;-94
2022/10/07 09:26:37;;;;;;;15.07;2.63;;;14.70;99.90;;;;;;5022980;28;20034;-91
2022/10/07 09:29:02;;;;;;;15.25;3.35;;;14.90;99.90;;;;;;5032204;28;20083;-90
2022/10/07 09:31:31;;;;;;;16.92;3.65;;;15.00;99.90;;;;;;5015223;28;20056;-90
2022/10/07 09:33:57;;;;;;;10.40;2.35;;;15.10;99.90;;;;;;5016442;28;20041;-92
2022/10/07 09:36:24;;;;;;;10.65;2.55;;;15.20;99.60;;;;;;4982811;28;20458;-90
2022/10/07 09:38:52;;;;;;;14.75;3.05;;;15.40;99.30;;;;;;4998505;28;20347;-92
2022/10/07 09:41:31;;;;;;;9.30;2.45;;;15.40;99.10;;;;;;4997925;28;20488;-89
2022/10/07 09:44:15;;;;;;;9.60;2.50;;;15.50;99.10;;;;;;5015127;28;20120;-90
2022/10/07 09:46:55;;;;;;;12.70;2.95;;;15.60;98.90;;;;;;5015696;28;20050;-91
2022/10/07 09:49:43;;;;;;;12.63;2.92;;;15.70;98.60;;;;;;4998635;28;20059;-91
2022/10/07 09:52:13;;;;;;;12.10;2.33;;;15.70;98.60;;;;;;4998108;28;20052;-93
2022/10/07 09:54:39;;;;;;;13.38;2.50;;;15.70;98.30;;;;;;5015584;28;20026;-90
2022/10/07 09:57:05;;;;;;;11.60;2.42;;;15.80;98.10;;;;;;5014491;28;20025;-90
2022/10/07 09:59:34;;;;;;;11.38;2.85;;;15.90;98.20;;;;;;4998132;28;20041;-91
2022/10/07 10:02:24;;;;;;;12.40;2.45;;;15.90;98.40;;;;;;4997979;28;20022;-91
2022/10/07 10:04:56;;;;;;;14.35;2.90;;;16.00;98.30;;;;;;4981814;28;20413;-90
2022/10/07 10:07:34;;;;;;;10.95;2.33;;;16.10;98.00;;;;;;5015243;28;20014;-93
2022/10/07 10:10:17;;;;;;;10.02;2.05;;;16.10;97.60;;;;;;5015496;28;20033;-90
2022/10/07 10:12:51;;;;;;;12.57;2.03;;;16.20;97.10;;;;;;4990454;28;20022;-90
2022/10/07 10:15:25;;;;;;;13.73;2.40;;;16.20;97.10;;;;;;4977804;28;20057;-85
2022/10/07 10:17:53;;;;;;;10.30;2.13;;;16.20;96.70;;;;;;4981523;28;20435;-86
2022/10/07 10:20:28;;;;;;;12.02;2.50;;;16.30;96.70;;;;;;4976702;28;20541;-85
2022/10/07 10:22:54;;;;;;;9.75;2.50;;;16.40;96.30;;;;;;4994454;28;20030;-86
2022/10/07 10:28:43;;;;;;;9.68;2.42;;;16.50;96.00;;;;;;4994291;28;20061;-86
2022/10/07 10:31:31;;;;;;;13.52;2.53;;;16.50;96.20;;;;;;4994254;28;20019;-85
2022/10/07 10:34:43;;;;;;;9.43;2.17;;;16.60;96.20;;;;;;4994243;28;20029;-85
2022/10/07 10:37:17;;;;;;;15.45;3.20;;;16.70;95.90;;;;;;4963728;28;20042;-86
2022/10/07 10:39:52;;;;;;;15.98;2.35;;;16.80;95.90;;;;;;4976814;28;20038;-86
2022/10/07 10:42:23;;;;;;;9.07;2.22;;;16.80;94.80;;;;;;5002066;28;20050;-87
2022/10/07 10:45:13;;;;;;;12.18;2.10;;;16.80;94.60;;;;;;5029247;28;20103;-86
2022/10/07 10:48:05;;;;;;;12.02;2.38;;;16.80;94.50;;;;;;5013007;28;20030;-87
2022/10/07 10:51:06;;;;;;;10.05;2.88;;;16.90;94.70;;;;;;5013883;28;20030;-86
2022/10/07 10:53:34;;;;;;;12.57;3.35;;;17.00;94.80;;;;;;4983266;28;20052;-85
2022/10/07 10:56:23;;;;;;;11.07;2.42;;;17.10;95.00;;;;;;4995967;28;20022;-85
2022/10/07 10:58:58;;;;;;;18.30;3.03;;;17.20;94.90;;;;;;5011762;28;20030;-85
2022/10/07 11:01:35;;;;;;;11.27;1.90;;;17.30;94.80;;;;;;5013137;28;20049;-87
2022/10/07 11:04:13;;;;;;;13.27;2.33;;;17.30;94.10;;;;;;4996671;28;20033;-88
2022/10/07 11:06:43;;;;;;;11.95;2.60;;;17.40;93.90;;;;;;5013948;28;20041;-88
2022/10/07 11:09:18;;;;;;;8.40;1.92;;;17.40;93.70;;;;;;4996718;28;20057;-88
2022/10/07 11:11:44;;;;;;;10.88;2.30;;;17.50;93.20;;;;;;5029029;28;20022;-88
2022/10/07 11:14:16;;;;;;;13.95;2.20;;;17.60;93.20;;;;;;5012847;28;20080;-88
2022/10/07 11:17:03;;;;;;;10.75;2.70;;;17.70;93.30;;;;;;4995971;28;20084;-93
2022/10/07 11:20:58;;;;;;;12.93;2.33;;;17.80;93.20;;;;;;5006704;28;20114;-96
2022/10/07 11:23:16;;;;;;;8.32;1.95;;;17.90;92.50;;;;;;5006165;28;20052;-96
2022/10/07 11:25:49;;;;;;;10.73;2.63;;;18.00;92.70;;;;;;4999976;28;20122;-88
2022/10/07 11:28:38;;;;;;;8.30;2.03;;;18.10;92.10;;;;;;5018078;28;20100;-88
2022/10/07 11:31:25;;;;;;;11.35;2.45;;;18.20;92.00;;;;;;5033276;28;20053;-89
2022/10/07 11:34:15;;;;;;;12.75;2.75;;;18.30;92.00;;;;;;5017958;28;20014;-88
2022/10/07 11:36:55;;;;;;;12.65;2.17;;;18.30;91.80;;;;;;5016942;28;20465;-88
2022/10/07 11:39:22;;;;;;;13.30;2.42;;;18.40;91.40;;;;;;5000668;28;20030;-89
2022/10/07 11:42:00;;;;;;;10.20;2.42;;;18.50;90.80;;;;;;4984367;28;20103;-89
2022/10/07 11:44:42;;;;;;;10.68;2.30;;;18.50;90.70;;;;;;5017727;28;20026;-90
2022/10/07 11:47:13;;;;;;;9.90;2.30;;;18.50;90.50;;;;;;5000425;28;20022;-90
2022/10/07 11:49:54;;;;;;;8.88;2.08;;;18.60;90.40;;;;;;5005272;28;20030;-89
2022/10/07 11:52:25;;;;;;;13.15;1.90;;;18.60;90.30;;;;;;5001769;28;20336;-89
2022/10/07 11:54:58;;;;;;;;;;;18.70;90.60;;;;;;5018110;28;20018;-88
2022/10/07 11:57:30;;;;;;;12.25;2.13;;;18.80;90.90;;;;;;5017277;28;19906;-88
2022/10/07 12:00:27;;;;;;;8.02;2.08;;;18.90;90.10;;;;;;5033028;28;20037;-88
2022/10/07 12:02:55;;;;;;;10.82;2.28;;;19.00;90.10;;;;;;4994209;28;20506;-86
2022/10/07 12:05:32;;;;;;;11.07;2.38;;;19.00;88.80;;;;;;4983492;28;20022;-88
2022/10/07 12:07:59;;;;;;;9.43;2.03;;;19.10;88.10;;;;;;5016820;28;20038;-88
2022/10/07 12:10:35;;;;;;;7.90;1.95;;;19.10;88.70;;;;;;5016063;28;20029;-89
2022/10/07 12:13:21;;;;;;;10.65;2.08;;;19.10;87.40;;;;;;4999366;28;20119;-87
2022/10/07 12:15:48;;;;;;;8.07;2.03;;;19.20;87.00;;;;;;4979049;28;20367;-88
2022/10/07 12:18:16;;;;;;;10.05;2.42;;;19.30;87.50;;;;;;4982828;28;20034;-87
2022/10/07 12:20:45;;;;;;;12.55;2.42;;;19.30;87.60;;;;;;5015158;28;20484;-87
2022/10/07 12:23:24;;;;;;;8.27;1.95;;;19.40;87.30;;;;;;5016625;28;20018;-88
2022/10/07 12:25:51;;;;;;;13.82;2.53;;;19.40;85.90;;;;;;5015274;28;20033;-88
2022/10/07 12:28:44;;;;;;;11.55;2.08;;;19.50;86.70;;;;;;5015513;28;20033;-88
2022/10/07 12:31:23;;;;;;;6.93;1.70;;;19.60;85.40;;;;;;5000669;28;20053;-91
2022/10/07 12:33:57;;;;;;;7.70;2.20;;;19.60;84.30;;;;;;5025706;28;20030;-92
2022/10/07 12:36:24;;;;;;;10.20;2.15;;;19.60;84.00;;;;;;5002064;28;20489;-92
2022/10/07 12:38:58;;;;;;;9.75;2.13;;;19.60;84.60;;;;;;4997936;28;20033;-92
2022/10/07 12:41:31;;;;;;;10.88;2.22;;;19.70;83.90;;;;;;5015824;28;20029;-94
2022/10/07 12:44:06;;;;;;;9.07;1.88;;;19.70;84.10;;;;;;4985838;28;20077;-92
2022/10/07 12:46:46;;;;;;;10.02;2.35;;;19.80;82.50;;;;;;5003678;28;20020;-93
2022/10/07 12:49:19;;;;;;;8.55;1.88;;;19.80;81.90;;;;;;5008314;28;20076;-93
2022/10/07 12:51:51;;;;;;;7.40;1.70;;;19.80;82.30;;;;;;5011386;28;20084;-93
2022/10/07 12:54:41;;;;;;;14.60;2.00;;;19.80;80.80;;;;;;5015309;28;20030;-93
2022/10/07 12:57:12;;;;;;;9.20;2.72;;;19.90;79.40;;;;;;4990408;28;20022;-91
2022/10/07 12:59:48;;;;;;;7.65;1.70;;;19.80;78.90;;;;;;4989135;28;20494;-92
2022/10/07 13:02:45;;;;;;;9.60;2.53;;;19.90;79.00;;;;;;4980560;28;20026;-93
2022/10/07 13:05:48;;;;;;;8.38;1.90;;;20.00;80.10;;;;;;4996397;28;20018;-91
2022/10/07 13:08:22;;;;;;;10.32;2.22;;;20.10;78.70;;;;;;5013394;28;20069;-94
2022/10/07 13:11:26;;;;;;;9.98;2.92;;;20.10;79.20;;;;;;4997809;28;20030;-95
2022/10/07 13:14:23;;;;;;;10.30;2.13;;;20.10;78.60;;;;;;5012226;28;20088;-93
2022/10/07 13:17:00;;;;;;;5.78;1.65;;;20.20;77.30;;;;;;4991156;28;20100;-91